KHQM/HQM METAR and TAF weather

Enter ICAO airport designator
Station Type Date Time Source
KHQM METAR 2022/07/03 13:53 UTC NOAA

KHQM 031353Z AUTO 29008KT 10SM OVC024 15/09 A2995 RMK AO2 SLP146 T01500094


Station Type Date Time Source
KHQM Decoded METAR 2022/07/03 13:53 UTC NOAA

HOQUIAM BOWERMAN AIRPORT, WA, United States (KHQM) 46-58N 123-56W 7M
Jul 03, 2022 - 09:53 AM EDT / 2022.07.03 1353 UTC
Wind: from the WNW (290 degrees) at 9 MPH (8 KT):0
Visibility: 10 mile(s):0
Sky conditions: overcast
Temperature: 59.0 F (15.0 C)
Dew Point: 48.9 F (9.4 C)
Relative Humidity: 69%
Pressure (altimeter): 29.95 in. Hg (1014 hPa)
ob: KHQM 031353Z AUTO 29008KT 10SM OVC024 15/09 A2995 RMK AO2 SLP146 T01500094
cycle: 14

Station Type Date Time Source
KHQM TAF 2022/07/03 12:42 UTC NOAA

TAF KHQM 031139Z 0312/0412 29008KT P6SM OVC022
FM032000 24010KT P6SM VCSH OVC025
FM040100 25009KT P6SM OVC035
FM041000 24003KT P6SM OVC025

Example: see airport list